Time;durP1;ratioP1;P1;durP2;ratioP2;P2;SDS_P1;SDS_P2;PMS_P1;PMS_P2;Temp;Humidity;BMP_temperature;BMP_pressure;BME280_temperature;BME280_humidity;BME280_pressure;Samples;Min_cycle;Max_cycle;Signal;HPM_P1;HPM_P2
2022/01/02 00:01:17;;;;;;;;;;;;;;;;;;5326416;28;19908;-68
2022/01/02 00:03:48;;;;;;;;;;;;;;;;;;5325845;28;19980;-68
2022/01/02 00:06:19;;;;;;;;;;;;;;;;;;5325958;28;19950;-67
2022/01/02 00:08:50;;;;;;;;;;;;;;;;;;5325778;28;19910;-68
2022/01/02 00:11:21;;;;;;;;;;;;;;;;;;5326408;28;20338;-69
2022/01/02 00:13:53;;;;;;;;;;;;;;;;;;5325394;28;19939;-66
2022/01/02 00:16:24;;;;;;;;;;;;;;;;;;5325928;28;19904;-67
2022/01/02 00:19:08;;;;;;;;;;;;;;;;;;5325682;28;20463;-68
2022/01/02 00:21:44;;;;;;;;;;;;;;;;;;5325339;28;19904;-68
2022/01/02 00:24:20;;;;;;;;;;;;;;;;;;5326010;28;19903;-67
2022/01/02 00:26:51;;;;;;;;;;;;;;;;;;5324913;28;19987;-68
2022/01/02 00:29:22;;;;;;;;;;;;;;;;;;5326109;28;20003;-68
2022/01/02 00:31:53;;;;;;;;;;;;;;;;;;5325027;28;19910;-68
2022/01/02 00:34:25;;;;;;;;;;;;;;;;;;5325301;28;19926;-67
2022/01/02 00:36:56;;;;;;;;;;;;;;;;;;5325306;28;20373;-68
2022/01/02 00:39:27;;;;;;;;;;;;;;;;;;5325894;28;20007;-68
2022/01/02 00:41:58;;;;;;;;;;;;;;;;;;5324532;28;19964;-67
2022/01/02 00:44:29;;;;;;;;;;;;;;;;;;5325572;28;19911;-68
2022/01/02 00:47:00;;;;;;;;;;;;;;;;;;5324983;28;20402;-68
2022/01/02 00:49:31;;;;;;;;;;;;;;;;;;5324958;28;19938;-68
2022/01/02 00:52:02;;;;;;;;;;;;;;;;;;5324765;28;19946;-68
2022/01/02 00:54:34;;;;;;;;;;;;;;;;;;5324942;28;19904;-68
2022/01/02 00:57:05;;;;;;;;;;;;;;;;;;5325111;28;20070;-68
2022/01/02 00:59:36;;;;;;;;;;;;;;;;;;5324246;28;19978;-67
2022/01/02 01:02:07;;;;;;;;;;;;;;;;;;5324662;28;19904;-67
2022/01/02 01:04:38;;;;;;;;;;;;;;;;;;5324506;28;20404;-67
2022/01/02 01:07:09;;;;;;;;;;;;;;;;;;5325337;28;19927;-67
2022/01/02 01:09:40;;;;;;;;;;;;;;;;;;5324256;28;19911;-68
2022/01/02 01:12:12;;;;;;;;;;;;;;;;;;5325190;28;20036;-68
2022/01/02 01:14:43;;;;;;;;;;;;;;;;;;5324607;28;19911;-67
2022/01/02 01:17:14;;;;;;;;;;;;;;;;;;5324407;28;19975;-68
2022/01/02 01:19:46;;;;;;;;;;;;;;;;;;5324167;28;20359;-68
2022/01/02 01:22:17;;;;;;;;;;;;;;;;;;5325170;28;19904;-68
2022/01/02 01:24:48;;;;;;;;;;;;;;;;;;5324147;28;19949;-68
2022/01/02 01:27:19;;;;;;;;;;;;;;;;;;5324697;28;19910;-68
2022/01/02 01:29:50;;;;;;;;;;;;;;;;;;5323637;28;19903;-67
2022/01/02 01:32:21;;;;;;;;;;;;;;;;;;5324734;28;19908;-68
2022/01/02 01:34:52;;;;;;;;;;;;;;;;;;5323917;28;20353;-68
2022/01/02 01:37:23;;;;;;;;;;;;;;;;;;5324406;28;19904;-67
2022/01/02 01:39:54;;;;;;;;;;;;;;;;;;5323882;28;19915;-68
2022/01/02 01:43:01;;;;;;;;;;;;;;;;;;5324479;28;19904;-68
2022/01/02 01:47:54;;;;;;;;;;;;;;;;;;5323609;28;19911;-68
2022/01/02 01:50:25;;;;;;;;;;;;;;;;;;5324711;28;19908;-68
2022/01/02 01:52:56;;;;;;;;;;;;;;;;;;5323457;28;19914;-68
2022/01/02 01:55:27;;;;;;;;;;;;;;;;;;5324303;28;19910;-68
2022/01/02 01:57:59;;;;;;;;;;;;;;;;;;5323574;28;19908;-68
2022/01/02 02:00:33;;;;;;;;;;;;;;;;;;5324505;28;19951;-68
2022/01/02 02:03:04;;;;;;;;;;;;;;;;;;5323757;28;19908;-67
2022/01/02 02:05:35;;;;;;;;;;;;;;;;;;5323902;28;20316;-67
2022/01/02 02:08:07;;;;;;;;;;;;;;;;;;5323754;28;19964;-68
2022/01/02 02:10:41;;;;;;;;;;;;;;;;;;5325729;28;20316;-68
2022/01/02 02:13:12;;;;;;;;;;;;;;;;;;5328213;28;19908;-68
2022/01/02 02:15:43;;;;;;;;;;;;;;;;;;5327910;28;19957;-68
2022/01/02 02:18:14;;;;;;;;;;;;;;;;;;5328892;28;19904;-68
2022/01/02 02:20:45;;;;;;;;;;;;;;;;;;5327579;28;19911;-68
2022/01/02 02:23:17;;;;;;;;;;;;;;;;;;5328562;28;19946;-68
2022/01/02 02:25:48;;;;;;;;;;;;;;;;;;5327870;28;20335;-69
2022/01/02 02:28:19;;;;;;;;;;;;;;;;;;5328063;28;19904;-68
2022/01/02 02:30:50;;;;;;;;;;;;;;;;;;5327787;28;19908;-68
2022/01/02 02:33:21;;;;;;;;;;;;;;;;;;5327727;28;19990;-69
2022/01/02 02:35:53;;;;;;;;;;;;;;;;;;5327617;28;19912;-67
2022/01/02 02:38:24;;;;;;;;;;;;;;;;;;5328386;28;19908;-67
2022/01/02 02:40:56;;;;;;;;;;;;;;;;;;5326974;28;19911;-67
2022/01/02 02:43:33;;;;;;;;;;;;;;;;;;5327958;28;19948;-67
2022/01/02 02:49:02;;;;;;;;;;;;;;;;;;5326696;28;19915;-67
2022/01/02 02:51:44;;;;;;;;;;;;;;;;;;5327794;28;19900;-68
2022/01/02 02:54:15;;;;;;;;;;;;;;;;;;5327594;28;19908;-68
2022/01/02 02:56:56;;;;;;;;;;;;;;;;;;5327046;28;20378;-68
2022/01/02 02:59:27;;;;;;;;;;;;;;;;;;5327876;28;19915;-69
2022/01/02 03:01:58;;;;;;;;;;;;;;;;;;5326557;28;19908;-68
2022/01/02 03:04:29;;;;;;;;;;;;;;;;;;5327672;28;20365;-68
2022/01/02 03:07:00;;;;;;;;;;;;;;;;;;5327264;28;19984;-68
2022/01/02 03:09:39;;;;;;;;;;;;;;;;;;5327110;28;19912;-68
2022/01/02 03:12:13;;;;;;;;;;;;;;;;;;5327581;28;19908;-68
2022/01/02 03:14:44;;;;;;;;;;;;;;;;;;5327207;28;19903;-68
2022/01/02 03:17:15;;;;;;;;;;;;;;;;;;5327076;28;20411;-67
2022/01/02 03:19:46;;;;;;;;;;;;;;;;;;5326602;28;19912;-67
2022/01/02 03:22:17;;;;;;;;;;;;;;;;;;5325832;28;19960;-68
2022/01/02 03:24:51;;;;;;;;;;;;;;;;;;5326813;28;19910;-68
2022/01/02 03:27:22;;;;;;;;;;;;;;;;;;5327370;28;19947;-68
2022/01/02 03:29:54;;;;;;;;;;;;;;;;;;5326029;28;19957;-67
2022/01/02 03:32:25;;;;;;;;;;;;;;;;;;5327034;28;20350;-68
2022/01/02 03:34:56;;;;;;;;;;;;;;;;;;5326376;28;20329;-68
2022/01/02 03:37:28;;;;;;;;;;;;;;;;;;5326691;28;19911;-67
2022/01/02 03:40:00;;;;;;;;;;;;;;;;;;5326349;28;19957;-68
2022/01/02 03:42:31;;;;;;;;;;;;;;;;;;5326982;28;20374;-67
2022/01/02 03:45:02;;;;;;;;;;;;;;;;;;5325784;28;19903;-68
2022/01/02 03:47:33;;;;;;;;;;;;;;;;;;5326458;28;19911;-68
2022/01/02 03:50:04;;;;;;;;;;;;;;;;;;5326227;28;20002;-67
2022/01/02 03:52:35;;;;;;;;;;;;;;;;;;5326361;28;20354;-68
2022/01/02 03:55:06;;;;;;;;;;;;;;;;;;5326141;28;19911;-68
2022/01/02 03:57:37;;;;;;;;;;;;;;;;;;5325726;28;19908;-68
2022/01/02 04:00:08;;;;;;;;;;;;;;;;;;5326239;28;19915;-68
2022/01/02 04:02:39;;;;;;;;;;;;;;;;;;5326271;28;20266;-68
2022/01/02 04:05:11;;;;;;;;;;;;;;;;;;5325997;28;19904;-68
2022/01/02 04:07:42;;;;;;;;;;;;;;;;;;5325869;28;20278;-68
2022/01/02 04:10:13;;;;;;;;;;;;;;;;;;5326474;28;19949;-68
2022/01/02 04:12:44;;;;;;;;;;;;;;;;;;5325221;28;19990;-68
2022/01/02 04:15:15;;;;;;;;;;;;;;;;;;5326315;28;19900;-68
2022/01/02 04:17:46;;;;;;;;;;;;;;;;;;5325854;28;19910;-68
2022/01/02 04:20:17;;;;;;;;;;;;;;;;;;5325627;28;20324;-68
2022/01/02 04:22:48;;;;;;;;;;;;;;;;;;5325346;28;20375;-68
2022/01/02 04:25:19;;;;;;;;;;;;;;;;;;5326152;28;19999;-67
2022/01/02 04:27:51;;;;;;;;;;;;;;;;;;5324916;28;20430;-68
2022/01/02 04:30:22;;;;;;;;;;;;;;;;;;5325773;28;20308;-68
2022/01/02 04:32:53;;;;;;;;;;;;;;;;;;5324676;28;19911;-68
2022/01/02 04:35:24;;;;;;;;;;;;;;;;;;5325703;28;19904;-68
2022/01/02 04:37:55;;;;;;;;;;;;;;;;;;5325391;28;19930;-68
2022/01/02 04:40:26;;;;;;;;;;;;;;;;;;5325311;28;19915;-67
2022/01/02 04:42:57;;;;;;;;;;;;;;;;;;5324958;28;19955;-68
2022/01/02 04:45:28;;;;;;;;;;;;;;;;;;5325877;28;20351;-68
2022/01/02 04:47:59;;;;;;;;;;;;;;;;;;5326151;27;19915;-68
2022/01/02 04:50:31;;;;;;;;;;;;;;;;;;5324649;28;19958;-69
2022/01/02 04:53:02;;;;;;;;;;;;;;;;;;5325084;28;19980;-69
2022/01/02 04:55:33;;;;;;;;;;;;;;;;;;5325080;28;19907;-68
2022/01/02 04:58:05;;;;;;;;;;;;;;;;;;5324685;28;19911;-68
2022/01/02 05:00:36;;;;;;;;;;;;;;;;;;5324523;28;19911;-68
2022/01/02 05:03:07;;;;;;;;;;;;;;;;;;5324927;28;19904;-68
2022/01/02 05:05:38;;;;;;;;;;;;;;;;;;5324820;28;19903;-69
2022/01/02 05:08:09;;;;;;;;;;;;;;;;;;5324881;28;19904;-68
2022/01/02 05:10:40;;;;;;;;;;;;;;;;;;5324436;28;20346;-67
2022/01/02 05:13:11;;;;;;;;;;;;;;;;;;5325543;28;19942;-69
2022/01/02 05:15:42;;;;;;;;;;;;;;;;;;5324213;28;19908;-69
2022/01/02 05:18:13;;;;;;;;;;;;;;;;;;5325029;28;19911;-68
2022/01/02 05:20:46;;;;;;;;;;;;;;;;;;5324311;28;19918;-68
2022/01/02 05:23:18;;;;;;;;;;;;;;;;;;5324429;28;19903;-67
2022/01/02 05:25:49;;;;;;;;;;;;;;;;;;5324039;28;19904;-67
2022/01/02 05:28:21;;;;;;;;;;;;;;;;;;5325106;28;19903;-67
2022/01/02 05:30:52;;;;;;;;;;;;;;;;;;5323861;28;19958;-67
2022/01/02 05:33:23;;;;;;;;;;;;;;;;;;5324713;28;19911;-68
2022/01/02 05:35:54;;;;;;;;;;;;;;;;;;5323547;28;19903;-69
2022/01/02 05:38:25;;;;;;;;;;;;;;;;;;5324509;28;20415;-68
2022/01/02 05:40:57;;;;;;;;;;;;;;;;;;5324171;28;19915;-68
2022/01/02 05:43:29;;;;;;;;;;;;;;;;;;5324377;28;19910;-68
2022/01/02 05:46:05;;;;;;;;;;;;;;;;;;5323361;28;19907;-68
2022/01/02 05:48:36;;;;;;;;;;;;;;;;;;5324308;28;19912;-69
2022/01/02 05:51:08;;;;;;;;;;;;;;;;;;5323590;28;19916;-68
2022/01/02 05:53:39;;;;;;;;;;;;;;;;;;5323743;28;20312;-68
2022/01/02 05:56:10;;;;;;;;;;;;;;;;;;5324484;28;19973;-68
2022/01/02 05:58:41;;;;;;;;;;;;;;;;;;5323143;28;19964;-68
2022/01/02 06:01:12;;;;;;;;;;;;;;;;;;5324403;28;19998;-68
2022/01/02 06:03:43;;;;;;;;;;;;;;;;;;5323982;28;19907;-68
2022/01/02 06:06:14;;;;;;;;;;;;;;;;;;5323563;28;20338;-67
2022/01/02 06:08:45;;;;;;;;;;;;;;;;;;5323929;28;19939;-67
2022/01/02 06:11:16;;;;;;;;;;;;;;;;;;5323843;28;19904;-68
2022/01/02 06:13:47;;;;;;;;;;;;;;;;;;5323652;28;19910;-68
2022/01/02 06:16:18;;;;;;;;;;;;;;;;;;5324519;28;19904;-68
2022/01/02 06:18:52;;;;;;;;;;;;;;;;;;5323219;28;19943;-68
2022/01/02 06:21:23;;;;;;;;;;;;;;;;;;5323982;28;19922;-68
2022/01/02 06:23:54;;;;;;;;;;;;;;;;;;5324063;28;19903;-68
2022/01/02 06:26:25;;;;;;;;;;;;;;;;;;5323949;28;19903;-68
2022/01/02 06:28:56;;;;;;;;;;;;;;;;;;5323403;28;20446;-68
2022/01/02 06:31:27;;;;;;;;;;;;;;;;;;5324310;28;19910;-68
2022/01/02 06:33:58;;;;;;;;;;;;;;;;;;5323449;28;19903;-68
2022/01/02 06:36:29;;;;;;;;;;;;;;;;;;5323816;28;19903;-68
2022/01/02 06:39:00;;;;;;;;;;;;;;;;;;5323600;28;19954;-68
2022/01/02 06:41:31;;;;;;;;;;;;;;;;;;5323479;28;19904;-68
2022/01/02 06:44:02;;;;;;;;;;;;;;;;;;5323496;28;20282;-68
2022/01/02 06:46:33;;;;;;;;;;;;;;;;;;5323410;28;19903;-68
2022/01/02 06:49:05;;;;;;;;;;;;;;;;;;5323165;28;19956;-68
2022/01/02 06:51:36;;;;;;;;;;;;;;;;;;5323801;28;19923;-68
2022/01/02 06:54:07;;;;;;;;;;;;;;;;;;5323116;28;19904;-68
2022/01/02 06:56:38;;;;;;;;;;;;;;;;;;5323304;28;19907;-68
2022/01/02 06:59:09;;;;;;;;;;;;;;;;;;5327858;28;19904;-68
2022/01/02 07:01:40;;;;;;;;;;;;;;;;;;5326901;28;19903;-68
2022/01/02 07:04:11;;;;;;;;;;;;;;;;;;5327751;28;19910;-68
2022/01/02 07:06:42;;;;;;;;;;;;;;;;;;5327282;28;19907;-68
2022/01/02 07:09:13;;;;;;;;;;;;;;;;;;5327201;28;20261;-68
2022/01/02 07:11:44;;;;;;;;;;;;;;;;;;5326823;28;19904;-68
2022/01/02 07:14:15;;;;;;;;;;;;;;;;;;5327278;28;19904;-68
2022/01/02 07:16:47;;;;;;;;;;;;;;;;;;5326843;28;19990;-68
2022/01/02 07:19:18;;;;;;;;;;;;;;;;;;5327390;28;19912;-68
2022/01/02 07:21:49;;;;;;;;;;;;;;;;;;5326085;28;19986;-68
2022/01/02 07:24:20;;;;;;;;;;;;;;;;;;5327026;28;20330;-67
2022/01/02 07:26:51;;;;;;;;;;;;;;;;;;5327094;28;19904;-67
2022/01/02 07:29:22;;;;;;;;;;;;;;;;;;5326834;28;19994;-68
2022/01/02 07:31:53;;;;;;;;;;;;;;;;;;5326546;28;19904;-67
2022/01/02 07:34:24;;;;;;;;;;;;;;;;;;5327106;28;20350;-67
2022/01/02 07:36:56;;;;;;;;;;;;;;;;;;5325956;28;20489;-68
2022/01/02 07:39:27;;;;;;;;;;;;;;;;;;5326686;28;19911;-67
2022/01/02 07:41:58;;;;;;;;;;;;;;;;;;5326560;28;19990;-67
2022/01/02 07:44:29;;;;;;;;;;;;;;;;;;5326357;28;19904;-68
2022/01/02 07:47:00;;;;;;;;;;;;;;;;;;5326211;28;19907;-68
2022/01/02 07:49:31;;;;;;;;;;;;;;;;;;5326310;28;19943;-67
2022/01/02 07:52:02;;;;;;;;;;;;;;;;;;5326172;28;19904;-67
2022/01/02 07:54:33;;;;;;;;;;;;;;;;;;5326859;28;19960;-67
2022/01/02 07:57:04;;;;;;;;;;;;;;;;;;5325704;28;19903;-68
2022/01/02 07:59:35;;;;;;;;;;;;;;;;;;5326586;28;19962;-68
2022/01/02 08:02:06;;;;;;;;;;;;;;;;;;5326195;28;19904;-68
2022/01/02 08:04:38;;;;;;;;;;;;;;;;;;5325694;28;19899;-67
2022/01/02 08:07:09;;;;;;;;;;;;;;;;;;5326121;28;19903;-68
2022/01/02 08:09:40;;;;;;;;;;;;;;;;;;5324788;28;19899;-68
2022/01/02 08:12:11;;;;;;;;;;;;;;;;;;5325766;28;19904;-67
2022/01/02 08:14:42;;;;;;;;;;;;;;;;;;5325890;28;19904;-68
2022/01/02 08:17:13;;;;;;;;;;;;;;;;;;5326531;28;20347;-69
2022/01/02 08:19:44;;;;;;;;;;;;;;;;;;5324861;28;20259;-69
2022/01/02 08:22:15;;;;;;;;;;;;;;;;;;5326273;28;19904;-68
2022/01/02 08:24:46;;;;;;;;;;;;;;;;;;5324913;28;19904;-68
2022/01/02 08:27:17;;;;;;;;;;;;;;;;;;5326032;28;19904;-68
2022/01/02 08:29:48;;;;;;;;;;;;;;;;;;5325634;28;19903;-68
2022/01/02 08:32:19;;;;;;;;;;;;;;;;;;5325601;28;20278;-67
2022/01/02 08:34:50;;;;;;;;;;;;;;;;;;5324747;28;19957;-67
2022/01/02 08:37:22;;;;;;;;;;;;;;;;;;5326115;28;19927;-68
2022/01/02 08:39:53;;;;;;;;;;;;;;;;;;5324819;28;20007;-68
2022/01/02 08:42:24;;;;;;;;;;;;;;;;;;5325730;28;19910;-68
2022/01/02 08:44:55;;;;;;;;;;;;;;;;;;5325175;28;20369;-67
2022/01/02 08:47:26;;;;;;;;;;;;;;;;;;5325193;28;19904;-67
2022/01/02 08:49:57;;;;;;;;;;;;;;;;;;5324747;28;19916;-67
2022/01/02 08:52:28;;;;;;;;;;;;;;;;;;5325741;28;19920;-69
2022/01/02 08:54:59;;;;;;;;;;;;;;;;;;5324163;28;19904;-68
2022/01/02 08:57:30;;;;;;;;;;;;;;;;;;5325583;28;19904;-68
2022/01/02 09:00:01;;;;;;;;;;;;;;;;;;5321910;28;19915;-67
2022/01/02 09:02:32;;;;;;;;;;;;;;;;;;5324149;28;20061;-68
2022/01/02 09:05:03;;;;;;;;;;;;;;;;;;5323310;28;20332;-68
2022/01/02 09:07:34;;;;;;;;;;;;;;;;;;5323521;28;19907;-68
2022/01/02 09:10:06;;;;;;;;;;;;;;;;;;5323097;28;19904;-68
2022/01/02 09:12:37;;;;;;;;;;;;;;;;;;5322774;28;20002;-69
2022/01/02 09:15:08;;;;;;;;;;;;;;;;;;5323203;28;19903;-67
2022/01/02 09:17:39;;;;;;;;;;;;;;;;;;5322920;28;19903;-67
2022/01/02 09:20:10;;;;;;;;;;;;;;;;;;5322949;28;20339;-68
2022/01/02 09:22:41;;;;;;;;;;;;;;;;;;5322223;28;19911;-67
2022/01/02 09:25:12;;;;;;;;;;;;;;;;;;5323114;28;19994;-68
2022/01/02 09:27:44;;;;;;;;;;;;;;;;;;5323147;28;20255;-68
2022/01/02 09:30:15;;;;;;;;;;;;;;;;;;5323193;28;19998;-68
2022/01/02 09:32:47;;;;;;;;;;;;;;;;;;5323119;28;19933;-68
2022/01/02 09:35:18;;;;;;;;;;;;;;;;;;5322956;28;19903;-68
2022/01/02 09:37:49;;;;;;;;;;;;;;;;;;5322304;28;19910;-68
2022/01/02 09:40:20;;;;;;;;;;;;;;;;;;5323602;28;20019;-68
2022/01/02 09:42:51;;;;;;;;;;;;;;;;;;5322619;28;20362;-68
2022/01/02 09:45:22;;;;;;;;;;;;;;;;;;5323336;28;19904;-68
2022/01/02 09:47:53;;;;;;;;;;;;;;;;;;5322818;28;19908;-68
2022/01/02 09:50:24;;;;;;;;;;;;;;;;;;5322102;28;20002;-68
2022/01/02 09:52:55;;;;;;;;;;;;;;;;;;5322617;28;20231;-68
2022/01/02 09:55:26;;;;;;;;;;;;;;;;;;5323213;28;19903;-68
2022/01/02 09:58:03;;;;;;;;;;;;;;;;;;5321814;28;19908;-68
2022/01/02 10:00:35;;;;;;;;;;;;;;;;;;5322859;28;19912;-68
2022/01/02 10:03:06;;;;;;;;;;;;;;;;;;5322305;28;19927;-68
2022/01/02 10:05:37;;;;;;;;;;;;;;;;;;5322194;28;19907;-69
2022/01/02 10:47:14;;;;;;;6.50;1.60;;;;;;;-146.48;100.00;21569.50;5320307;27;20380;-69
2022/01/02 10:49:53;;;;;;;7.80;1.38;;;;;;;-146.48;100.00;23067.78;5320833;28;20036;-69
2022/01/02 10:52:36;;;;;;;6.68;1.30;;;;;;;-146.48;100.00;24445.56;5320733;28;20111;-69
2022/01/02 10:55:14;;;;;;;4.68;1.25;;;;;;;-146.48;100.00;24826.81;5319903;28;20039;-69
2022/01/02 10:57:49;;;;;;;5.97;1.33;;;;;;;-146.48;100.00;25255.78;5320688;28;20024;-68
2022/01/02 11:00:25;;;;;;;7.68;1.35;;;;;;;-146.48;100.00;25722.50;5320594;28;20277;-68
2022/01/02 11:02:59;;;;;;;7.43;1.08;;;;;;;-146.48;100.00;26191.28;5320085;28;20043;-68
2022/01/02 11:05:31;;;;;;;6.15;0.95;;;;;;;-146.48;100.00;26846.88;5321140;28;20015;-67
2022/01/02 11:08:04;;;;;;;8.85;1.52;;;;;;;-146.48;100.00;27419.13;5319357;28;20030;-68
2022/01/02 11:10:35;;;;;;;6.47;1.80;;;;;;;-146.48;100.00;27850.34;5320672;28;20110;-67
2022/01/02 11:13:06;;;;;;;5.60;1.48;;;;;;;-146.48;100.00;28295.53;5320058;28;20489;-68
2022/01/02 11:15:38;;;;;;;7.32;1.13;;;;;;;-146.48;100.00;28448.59;5319153;28;20042;-68
2022/01/02 11:18:11;;;;;;;12.35;2.05;;;;;;;-146.48;100.00;28633.44;5320829;28;20039;-69
2022/01/02 11:20:42;;;;;;;5.80;1.55;;;;;;;-146.48;100.00;29217.88;5319676;28;20702;-68
2022/01/02 11:23:21;;;;;;;4.68;1.73;;;;;;;-146.48;100.00;29516.09;5320539;28;20020;-68
2022/01/02 11:25:55;;;;;;;9.07;2.33;;;;;;;-146.48;100.00;29681.13;5319786;28;20030;-68
2022/01/02 11:28:40;;;;;;;7.40;1.63;;;;;;;-146.48;100.00;29740.78;5320279;28;20487;-68
2022/01/02 11:31:30;;;;;;;9.82;1.40;;;;;;;-146.48;100.00;29780.53;5320207;28;20028;-68
2022/01/02 11:34:23;;;;;;;5.75;1.33;;;;;;;-146.48;100.00;29907.78;5319746;28;20023;-67
2022/01/02 11:37:22;;;;;;;6.90;1.73;;;;;;;-146.48;100.00;29877.97;5319015;28;20486;-68
2022/01/02 11:40:02;;;;;;;4.18;1.30;;;;;;;-146.48;100.00;29808.38;5319747;28;20209;-68
2022/01/02 11:42:42;;;;;;;7.03;1.63;;;;;;;-146.48;100.00;29703.00;5319704;28;20416;-67
2022/01/02 11:45:22;;;;;;;7.93;1.80;;;;;;;-146.48;100.00;29506.16;5319935;28;20391;-68
2022/01/02 11:47:54;;;;;;;4.55;1.42;;;;;;;-146.48;100.00;29176.13;5304764;28;20099;-68
2022/01/02 11:50:36;;;;;;;7.53;1.30;;;;;;;-146.48;100.00;29188.06;5311014;28;20099;-68
2022/01/02 11:53:13;;;;;;;6.78;1.00;;;;;;;-146.48;100.00;29140.34;5305602;28;20084;-68
2022/01/02 11:55:46;;;;;;;4.72;1.10;;;;;;;-146.48;100.00;29227.81;5304526;28;20067;-69
2022/01/02 11:58:41;;;;;;;4.88;1.45;;;;;;;-146.48;100.00;29802.41;5290407;28;20116;-69
2022/01/02 12:01:49;;;;;;;4.20;0.85;;;;;;;-146.48;100.00;29985.34;5276362;28;20139;-68
2022/01/02 12:05:11;;;;;;;5.60;1.23;;;;;;;-146.48;100.00;30046.97;5283589;28;20024;-68
2022/01/02 12:07:50;;;;;;;4.28;1.10;;;;;;;-146.48;100.00;29816.31;5283841;28;20025;-67
2022/01/02 12:10:24;;;;;;;6.07;0.90;;;;;;;-146.48;100.00;30033.06;5281768;28;20024;-68
2022/01/02 12:12:55;;;;;;;6.28;0.85;;;;;;;-146.48;100.00;30013.19;5283447;28;20496;-68
2022/01/02 12:15:32;;;;;;;8.55;1.00;;;;;;;-146.48;100.00;30084.75;5283659;28;20024;-67
2022/01/02 12:18:13;;;;;;;5.53;1.10;;;;;;;-146.48;100.00;30172.25;5283111;28;20032;-68
2022/01/02 12:20:50;;;;;;;6.47;0.70;;;;;;;-146.48;100.00;30355.19;5283700;28;20055;-69
2022/01/02 12:23:34;;;;;;;5.57;1.23;;;;;;;-146.48;100.00;30750.94;5294307;28;20028;-68
2022/01/02 12:26:22;;;;;;;3.78;0.70;;;;;;;-146.48;100.00;30999.56;5295653;28;20032;-69
2022/01/02 12:29:12;;;;;;;3.30;1.00;;;;;;;-146.48;100.00;31190.50;5283339;28;20025;-68
2022/01/02 12:31:44;;;;;;;8.73;1.40;;;;;;;-146.48;100.00;31031.38;5282593;28;20028;-69
2022/01/02 12:34:18;;;;;;;7.40;2.22;;;;;;;-146.48;100.00;30908.06;5283834;28;20070;-69
2022/01/02 12:36:51;;;;;;;5.68;1.27;;;;;;;-146.48;100.00;30929.94;5282865;28;20040;-69
2022/01/02 12:39:25;;;;;;;6.30;1.50;;;;;;;-146.48;100.00;30850.41;5286204;28;20028;-69
2022/01/02 12:42:09;;;;;;;7.72;1.75;;;;;;;-146.48;100.00;30709.19;5289356;28;20565;-69
2022/01/02 12:44:42;;;;;;;3.75;0.75;;;;;;;-146.48;100.00;30593.84;5292044;28;20071;-69
2022/01/02 12:47:14;;;;;;;4.38;1.02;;;;;;;-146.48;100.00;30522.25;5291384;28;20086;-69
2022/01/02 12:49:47;;;;;;;3.85;0.77;;;;;;;-146.48;100.00;30605.78;5285540;28;20028;-69
2022/01/02 12:52:18;;;;;;;5.00;0.93;;;;;;;-146.48;100.00;30641.56;5299647;28;20047;-69
2022/01/02 12:54:50;;;;;;;5.53;0.80;;;;;;;-146.48;100.00;30758.91;5302982;28;20070;-69
2022/01/02 12:57:23;;;;;;;5.15;0.95;;;;;;;-146.48;100.00;30655.50;5303723;28;20024;-69
2022/01/02 12:59:59;;;;;;;4.80;0.70;;;;;;;-146.48;100.00;30645.53;5302437;28;20024;-69
2022/01/02 13:02:30;;;;;;;4.80;1.00;;;;;;;-146.48;100.00;30428.78;5304170;28;20106;-68
2022/01/02 13:05:03;;;;;;;7.72;1.00;;;;;;;-146.48;100.00;30420.81;5303591;28;20110;-68
2022/01/02 13:07:37;;;;;;;6.47;1.00;;;;;;;-146.48;100.00;30591.84;5303547;28;20062;-70
2022/01/02 13:10:13;;;;;;;4.30;1.17;;;;;;;-146.48;100.00;30695.25;5303968;28;20039;-67
2022/01/02 13:12:45;;;;;;;9.30;1.00;;;;;;;-146.48;100.00;30709.19;5303919;28;20028;-68
2022/01/02 13:15:18;;;;;;;4.43;0.85;;;;;;;-146.48;100.00;30776.81;5303306;28;20039;-67
2022/01/02 13:17:51;;;;;;;8.18;1.08;;;;;;;-146.48;100.00;30798.69;5286897;28;20476;-69
2022/01/02 13:20:34;;;;;;;6.40;0.77;;;;;;;-146.48;100.00;30862.31;5294580;28;20470;-69
2022/01/02 13:23:06;;;;;;;6.55;1.00;;;;;;;-146.48;100.00;30776.81;5303118;28;20394;-69
2022/01/02 13:25:40;;;;;;;5.03;0.90;;;;;;;-146.48;100.00;30790.72;5303233;28;20020;-69
2022/01/02 13:28:14;;;;;;;5.75;1.08;;;;;;;-146.48;100.00;30912.06;5303429;28;20031;-69
2022/01/02 13:30:53;;;;;;;9.65;1.40;;;;;;;-146.48;100.00;31071.16;5302749;28;20045;-69
2022/01/02 13:33:26;;;;;;;7.55;1.10;;;;;;;-146.48;100.00;31208.41;5303887;28;20406;-69
2022/01/02 13:36:28;;;;;;;6.78;1.30;;;;;;;-146.48;100.00;31355.59;5302666;28;20064;-69
2022/01/02 13:39:00;;;;;;;7.45;1.92;;;;;;;-146.48;100.00;31144.75;5290500;28;20078;-70
2022/01/02 13:41:35;;;;;;;8.25;1.80;;;;;;;-146.48;100.00;31059.22;5303380;28;20020;-68
2022/01/02 13:44:15;;;;;;;6.28;1.48;;;;;;;-146.48;100.00;30985.63;5303205;28;20105;-68
2022/01/02 13:46:53;;;;;;;6.80;1.10;;;;;;;-146.48;100.00;31029.41;5302869;28;20044;-68
2022/01/02 13:49:46;;;;;;;10.17;1.93;;;;;;;-146.48;100.00;31045.31;5302808;28;20026;-68
2022/01/02 13:52:19;;;;;;;7.50;2.38;;;;;;;-146.48;100.00;30933.94;5303875;28;20160;-68
2022/01/02 13:54:50;;;;;;;6.43;1.00;;;;;;;-146.48;100.00;30882.22;5302918;28;20028;-68
2022/01/02 13:57:29;;;;;;;5.63;1.10;;;;;;;-146.48;100.00;30914.03;5302712;28;20026;-68
2022/01/02 14:00:16;;;;;;;;;;;;;;;-146.48;100.00;31114.91;5303280;28;20024;-68
2022/01/02 14:02:52;;;;;;;9.85;1.20;;;;;;;-146.48;100.00;30577.94;5302541;28;19912;-69
2022/01/02 14:05:43;;;;;;;13.00;1.55;;;;;;;-146.48;100.00;30661.47;5303025;28;20043;-68
2022/01/02 14:08:17;;;;;;;6.88;0.88;;;;;;;-146.48;100.00;30454.63;5303376;28;20352;-70
2022/01/02 14:11:12;;;;;;;5.75;1.20;;;;;;;-146.48;100.00;30281.63;5301752;28;20031;-69
2022/01/02 14:13:50;;;;;;;4.93;0.85;;;;;;;-146.48;100.00;30076.81;5302583;28;20028;-70
2022/01/02 14:16:44;;;;;;;5.20;0.90;;;;;;;-146.48;100.00;30021.13;5302554;28;20417;-69
2022/01/02 14:19:15;;;;;;;7.22;0.90;;;;;;;-146.48;100.00;29961.47;5303267;28;20028;-70
2022/01/02 14:21:46;;;;;;;7.57;1.58;;;;;;;-146.48;100.00;29963.47;5302734;28;20028;-70
2022/01/02 14:24:17;;;;;;;8.65;0.90;;;;;;;-146.48;100.00;29981.34;5302677;28;20036;-70
2022/01/02 14:26:49;;;;;;;6.88;0.90;;;;;;;-146.48;100.00;30263.72;5302310;28;20020;-70
2022/01/02 14:29:22;;;;;;;4.45;0.80;;;;;;;-146.48;100.00;30394.97;5302861;28;20030;-70
2022/01/02 14:31:55;;;;;;;5.85;0.70;;;;;;;-146.48;100.00;30359.19;5299722;28;20536;-70
2022/01/02 14:34:26;;;;;;;4.55;0.60;;;;;;;-146.48;100.00;30210.03;5301876;28;20073;-70
2022/01/02 14:36:58;;;;;;;5.28;0.60;;;;;;;-146.48;100.00;30070.84;5301294;28;20110;-70
2022/01/02 14:39:29;;;;;;;8.23;1.00;;;;;;;-146.48;100.00;29919.72;5300477;28;20062;-70
2022/01/02 14:42:01;;;;;;;7.18;0.77;;;;;;;-146.48;100.00;29987.31;5301016;28;20020;-70
2022/01/02 14:44:32;;;;;;;9.90;1.00;;;;;;;-146.48;100.00;30122.53;5300661;28;20387;-71
2022/01/02 14:47:05;;;;;;;6.72;1.00;;;;;;;-146.48;100.00;30432.75;5301085;28;20028;-70
2022/01/02 14:49:36;;;;;;;7.97;1.30;;;;;;;-146.48;100.00;30731.06;5302619;28;20017;-69
2022/01/02 14:52:08;;;;;;;8.23;0.90;;;;;;;-146.48;100.00;30910.06;5301997;28;20205;-69
2022/01/02 14:54:39;;;;;;;9.50;0.98;;;;;;;-146.48;100.00;31178.56;5301845;28;20024;-69
2022/01/02 14:57:10;;;;;;;9.13;1.23;;;;;;;-146.48;100.00;31387.41;5301849;28;20039;-69
2022/01/02 14:59:44;;;;;;;10.95;1.33;;;;;;;-146.48;100.00;31566.44;5301418;28;20552;-69
2022/01/02 15:02:16;;;;;;;8.27;1.17;;;;;;;-146.48;100.00;31725.59;5302783;28;20027;-70
2022/01/02 15:04:47;;;;;;;7.93;1.42;;;;;;;-146.48;100.00;31729.56;5302033;28;20024;-69
2022/01/02 15:07:18;;;;;;;5.60;1.00;;;;;;;-146.48;100.00;31657.94;5301991;28;20055;-70
2022/01/02 15:09:50;;;;;;;6.70;1.00;;;;;;;-146.48;100.00;31387.41;5302226;28;20123;-70
2022/01/02 15:12:21;;;;;;;7.28;0.70;;;;;;;-146.48;100.00;31120.88;5302632;28;20024;-70
2022/01/02 15:14:53;;;;;;;6.43;0.82;;;;;;;-146.48;100.00;31021.44;5301006;28;20020;-70
2022/01/02 15:17:24;;;;;;;8.15;1.13;;;;;;;-146.48;100.00;30892.16;5302711;28;20032;-69
2022/01/02 15:19:56;;;;;;;7.13;0.70;;;;;;;-146.48;100.00;30884.22;5301513;28;20020;-69
2022/01/02 15:22:27;;;;;;;9.25;0.77;;;;;;;-146.48;100.00;30848.41;5304771;28;20020;-70
2022/01/02 15:24:58;;;;;;;7.68;0.85;;;;;;;-146.48;100.00;30882.22;5305754;28;20394;-70
2022/01/02 15:27:30;;;;;;;11.82;0.85;;;;;;;-146.48;100.00;30838.47;5305913;28;20475;-69
2022/01/02 15:30:02;;;;;;;5.80;1.00;;;;;;;-146.48;100.00;30836.47;5305658;28;20374;-70
2022/01/02 15:32:36;;;;;;;7.75;1.25;;;;;;;-146.48;100.00;30949.84;5306328;28;20031;-70
2022/01/02 15:35:11;;;;;;;6.45;0.60;;;;;;;-146.48;100.00;30927.97;5305231;28;20116;-70
2022/01/02 15:37:44;;;;;;;5.95;0.77;;;;;;;-146.48;100.00;30812.59;5305769;28;20024;-69
2022/01/02 15:40:17;;;;;;;6.15;0.90;;;;;;;-146.48;100.00;30752.94;5306285;28;20047;-70
2022/01/02 15:42:49;;;;;;;5.68;0.70;;;;;;;-146.48;100.00;30548.09;5305128;28;20115;-70